Time;durP1;ratioP1;P1;durP2;ratioP2;P2;SDS_P1;SDS_P2;PMS_P1;PMS_P2;Temp;Humidity;BMP_temperature;BMP_pressure;BME280_temperature;BME280_humidity;BME280_pressure;Samples;Min_cycle;Max_cycle;Signal;HPM_P1;HPM_P2
2021/06/27 00:01:56;;;;;;;;;;;14.30;99.90;;;;;;5058119;28;19925;-71
2021/06/27 00:04:23;;;;;;;;;;;14.30;99.90;;;;;;5057901;28;19924;-71
2021/06/27 00:06:49;;;;;;;;;;;14.30;99.90;;;;;;5057847;28;19931;-71
2021/06/27 00:09:16;;;;;;;;;;;14.30;99.90;;;;;;5058170;28;19935;-71
2021/06/27 00:11:44;;;;;;;;;;;14.30;99.90;;;;;;5058009;28;19935;-71
2021/06/27 00:14:11;;;;;;;;;;;14.30;99.90;;;;;;5057737;28;19925;-71
2021/06/27 00:16:38;;;;;;;;;;;14.30;99.90;;;;;;5057783;28;19931;-71
2021/06/27 00:19:05;;;;;;;;;;;14.20;99.90;;;;;;5057711;28;20260;-71
2021/06/27 00:21:32;;;;;;;;;;;14.20;99.90;;;;;;5057697;28;19925;-71
2021/06/27 00:23:59;;;;;;;;;;;14.20;99.90;;;;;;5057449;28;19925;-71
2021/06/27 00:26:26;;;;;;;;;;;14.10;99.90;;;;;;5057478;28;19950;-71
2021/06/27 00:28:54;;;;;;;;;;;14.10;99.90;;;;;;5057455;28;20356;-71
2021/06/27 00:31:21;;;;;;;;;;;14.10;99.90;;;;;;5057698;28;20379;-71
2021/06/27 00:33:48;;;;;;;;;;;14.10;99.90;;;;;;5057492;28;19935;-71
2021/06/27 00:36:15;;;;;;;;;;;14.00;99.90;;;;;;5057321;28;20399;-71
2021/06/27 00:38:42;;;;;;;;;;;14.00;99.90;;;;;;5057308;28;19925;-71
2021/06/27 00:41:09;;;;;;;;;;;14.00;99.90;;;;;;5057281;28;20019;-71
2021/06/27 00:43:35;;;;;;;;;;;14.00;99.90;;;;;;5057366;28;19935;-71
2021/06/27 00:46:04;;;;;;;;;;;14.00;99.90;;;;;;5057131;28;19944;-71
2021/06/27 00:48:30;;;;;;;;;;;14.00;99.90;;;;;;5057027;28;19942;-71
2021/06/27 00:50:57;;;;;;;;;;;14.00;99.90;;;;;;5057349;28;19931;-71
2021/06/27 00:53:24;;;;;;;;;;;13.90;99.90;;;;;;5057005;28;20280;-71
2021/06/27 00:55:55;;;;;;;;;;;13.90;99.90;;;;;;5057059;28;19932;-71
2021/06/27 00:58:28;;;;;;;;;;;13.90;99.90;;;;;;5057053;28;19925;-71
2021/06/27 01:00:55;;;;;;;;;;;13.90;99.90;;;;;;5056843;28;19935;-71
2021/06/27 01:03:23;;;;;;;;;;;13.90;99.90;;;;;;5057091;28;19931;-71
2021/06/27 01:05:50;;;;;;;;;;;13.90;99.90;;;;;;5056943;28;19928;-71
2021/06/27 01:08:17;;;;;;;;;;;13.90;99.90;;;;;;5056587;28;19924;-71
2021/06/27 01:10:44;;;;;;;;;;;13.90;99.90;;;;;;5056825;28;19925;-71
2021/06/27 01:13:11;;;;;;;;;;;13.90;99.90;;;;;;5056608;28;19939;-71
2021/06/27 01:15:38;;;;;;;;;;;13.90;99.90;;;;;;5056767;28;19936;-71
2021/06/27 01:18:05;;;;;;;;;;;13.90;99.90;;;;;;5056427;28;20023;-71
2021/06/27 01:20:33;;;;;;;;;;;13.90;99.90;;;;;;5056640;28;19924;-71
2021/06/27 01:23:02;;;;;;;;;;;13.90;99.90;;;;;;5056598;28;19928;-71
2021/06/27 01:25:29;;;;;;;;;;;13.90;99.90;;;;;;5056423;28;19935;-71
2021/06/27 01:27:56;;;;;;;;;;;13.90;99.90;;;;;;5056305;28;19925;-71
2021/06/27 01:30:23;;;;;;;;;;;13.80;99.90;;;;;;5056297;28;19947;-71
2021/06/27 01:32:50;;;;;;;;;;;13.80;99.90;;;;;;5056526;28;20066;-71
2021/06/27 01:35:18;;;;;;;;;;;13.80;99.90;;;;;;5056689;28;19925;-71
2021/06/27 01:37:45;;;;;;;;;;;13.80;99.90;;;;;;5056303;28;20233;-71
2021/06/27 01:40:15;;;;;;;;;;;13.80;99.90;;;;;;5056230;28;19925;-71
2021/06/27 01:42:42;;;;;;;;;;;13.70;99.90;;;;;;5056166;28;20345;-71
2021/06/27 01:45:12;;;;;;;;;;;13.80;99.90;;;;;;5055973;28;19925;-71
2021/06/27 01:47:39;;;;;;;;;;;13.70;99.90;;;;;;5055967;28;19924;-71
2021/06/27 01:50:06;;;;;;;;;;;13.70;99.90;;;;;;5055956;28;19940;-71
2021/06/27 01:52:33;;;;;;;;;;;13.70;99.90;;;;;;5056006;28;20273;-71
2021/06/27 01:55:00;;;;;;;;;;;13.70;99.90;;;;;;5055921;28;19924;-71
2021/06/27 01:57:28;;;;;;;;;;;13.70;99.90;;;;;;5055814;28;19925;-69
2021/06/27 01:59:55;;;;;;;;;;;13.70;99.90;;;;;;5055701;28;20333;-71
2021/06/27 02:02:22;;;;;;;;;;;13.60;99.90;;;;;;5055170;28;19924;-71
2021/06/27 02:04:49;;;;;;;;;;;13.60;99.90;;;;;;5055819;28;19925;-71
2021/06/27 02:07:16;;;;;;;;;;;13.60;99.90;;;;;;5055436;28;20257;-70
2021/06/27 02:09:43;;;;;;;;;;;13.60;99.90;;;;;;5055810;28;19924;-70
2021/06/27 02:12:10;;;;;;;;;;;13.50;99.90;;;;;;5055726;28;19925;-70
2021/06/27 02:14:38;;;;;;;;;;;13.50;99.90;;;;;;5055537;28;19925;-70
2021/06/27 02:17:05;;;;;;;;;;;13.40;99.90;;;;;;5055681;28;19924;-71
2021/06/27 02:19:32;;;;;;;;;;;13.40;99.90;;;;;;5055624;28;19929;-71
2021/06/27 02:21:59;;;;;;;;;;;13.40;99.90;;;;;;5055476;28;19924;-71
2021/06/27 02:24:26;;;;;;;;;;;13.40;99.90;;;;;;5055273;28;19925;-71
2021/06/27 02:26:53;;;;;;;;;;;13.40;99.90;;;;;;5055244;28;19961;-71
2021/06/27 02:29:20;;;;;;;;;;;13.50;99.90;;;;;;5055248;28;19924;-71
2021/06/27 02:31:50;;;;;;;;;;;13.50;99.90;;;;;;5055364;28;19924;-71
2021/06/27 02:34:17;;;;;;;;;;;13.60;99.90;;;;;;5055188;28;20027;-72
2021/06/27 02:36:44;;;;;;;;;;;13.60;99.90;;;;;;5055199;28;19935;-71
2021/06/27 02:39:10;;;;;;;;;;;13.60;99.90;;;;;;5055372;28;20003;-71
2021/06/27 02:41:37;;;;;;;;;;;13.60;99.90;;;;;;5055035;28;19935;-71
2021/06/27 02:44:04;;;;;;;;;;;13.60;99.90;;;;;;5055242;28;19951;-71
2021/06/27 02:46:31;;;;;;;;;;;13.70;99.90;;;;;;5054966;28;19929;-68
2021/06/27 02:48:59;;;;;;;;;;;13.60;99.90;;;;;;5055076;28;19925;-71
2021/06/27 02:51:26;;;;;;;;;;;13.60;99.90;;;;;;5054961;28;19939;-70
2021/06/27 02:53:53;;;;;;;;;;;13.60;99.90;;;;;;5054928;28;20030;-71
2021/06/27 02:56:20;;;;;;;;;;;13.60;99.90;;;;;;5055151;28;19935;-71
2021/06/27 02:58:47;;;;;;;;;;;13.60;99.90;;;;;;5054834;28;20363;-71
2021/06/27 03:01:14;;;;;;;;;;;13.70;99.90;;;;;;5055086;28;20027;-69
2021/06/27 03:03:41;;;;;;;;;;;13.70;99.90;;;;;;5046263;28;19925;-71
2021/06/27 03:06:10;;;;;;;;;;;13.70;99.90;;;;;;5044746;28;19925;-72
2021/06/27 03:08:37;;;;;;;;;;;13.70;99.90;;;;;;5034274;28;19929;-71
2021/06/27 03:11:05;;;;;;;;;;;13.70;99.90;;;;;;5034839;28;20304;-72
2021/06/27 03:13:33;;;;;;;;;;;13.60;99.90;;;;;;5036022;28;19990;-70
2021/06/27 03:16:00;;;;;;;;;;;13.60;99.90;;;;;;5038235;28;20015;-69
2021/06/27 03:18:29;;;;;;;;;;;13.70;99.90;;;;;;5055749;28;19925;-72
2021/06/27 03:20:56;;;;;;;;;;;13.70;99.90;;;;;;5058501;28;19986;-72
2021/06/27 03:23:26;;;;;;;;;;;13.70;99.90;;;;;;5058644;28;20333;-70
2021/06/27 03:26:03;;;;;;;;;;;13.70;99.90;;;;;;5058792;28;19924;-72
2021/06/27 03:28:33;;;;;;;;;;;13.70;99.90;;;;;;5058699;28;19925;-71
2021/06/27 03:31:01;;;;;;;;;;;13.80;99.90;;;;;;5043444;28;20415;-70
2021/06/27 03:33:31;;;;;;;;;;;13.80;99.90;;;;;;5038417;28;19972;-72
2021/06/27 03:35:59;;;;;;;;;;;13.90;99.90;;;;;;5038555;28;19931;-71
2021/06/27 03:38:32;;;;;;;;;;;14.00;99.90;;;;;;5038704;28;19951;-71
2021/06/27 03:41:09;;;;;;;;;;;14.00;99.90;;;;;;5038519;28;20027;-72
2021/06/27 03:43:36;;;;;;;;;;;14.10;99.90;;;;;;5038332;28;19995;-71
2021/06/27 03:46:03;;;;;;;;;;;14.10;99.90;;;;;;5042928;28;19942;-71
2021/06/27 03:48:34;;;;;;;;;;;14.10;99.90;;;;;;5036570;28;20027;-71
2021/06/27 03:51:01;;;;;;;;;;;14.20;99.90;;;;;;5038719;28;20253;-70
2021/06/27 03:53:30;;;;;;;;;;;14.20;99.90;;;;;;5035718;28;19925;-69
2021/06/27 03:55:58;;;;;;;;;;;14.20;99.90;;;;;;5038279;28;19936;-69
2021/06/27 03:58:27;;;;;;;;;;;14.20;99.90;;;;;;5038223;28;20250;-71
2021/06/27 04:00:54;;;;;;;;;;;14.20;99.90;;;;;;5038073;28;20035;-71
2021/06/27 04:03:21;;;;;;;;;;;14.20;99.90;;;;;;5038444;28;19932;-68
2021/06/27 04:05:49;;;;;;;;;;;14.30;99.90;;;;;;5037939;28;19925;-70
2021/06/27 04:08:16;;;;;;;;;;;14.30;99.90;;;;;;5037361;28;19925;-71
2021/06/27 04:10:44;;;;;;;;;;;14.30;99.90;;;;;;5037118;28;19929;-71
2021/06/27 04:13:11;;;;;;;;;;;14.30;99.90;;;;;;5035839;28;19925;-71
2021/06/27 04:15:38;;;;;;;;;;;14.30;99.90;;;;;;5036641;28;19932;-71
2021/06/27 04:18:05;;;;;;;;;;;14.30;99.90;;;;;;5036829;28;19925;-71
2021/06/27 04:20:32;;;;;;;;;;;14.30;99.90;;;;;;5037051;28;20341;-71
2021/06/27 04:22:59;;;;;;;;;;;14.30;99.90;;;;;;5036888;28;19925;-71
2021/06/27 04:25:26;;;;;;;;;;;14.30;99.90;;;;;;5035194;28;19925;-70
2021/06/27 04:27:54;;;;;;;;;;;14.30;99.90;;;;;;5036485;28;19929;-70
2021/06/27 04:30:21;;;;;;;;;;;14.30;99.90;;;;;;5036439;28;19925;-70
2021/06/27 04:32:48;;;;;;;;;;;14.30;99.90;;;;;;5036810;28;19951;-71
2021/06/27 04:35:15;;;;;;;;;;;14.30;99.90;;;;;;5036441;28;19925;-71
2021/06/27 04:37:42;;;;;;;;;;;14.40;99.90;;;;;;5036663;28;19925;-71
2021/06/27 04:40:09;;;;;;;;;;;14.40;99.90;;;;;;5036282;28;20360;-71
2021/06/27 04:42:36;;;;;;;;;;;14.40;99.90;;;;;;5036482;28;19940;-70
2021/06/27 04:45:05;;;;;;;;;;;14.40;99.90;;;;;;5036132;28;19955;-71
2021/06/27 04:47:32;;;;;;;;;;;14.50;99.90;;;;;;5036289;28;19936;-71
2021/06/27 04:49:58;;;;;;;;;;;14.50;99.90;;;;;;5036281;28;19935;-71
2021/06/27 04:52:25;;;;;;;;;;;14.50;99.90;;;;;;5036144;28;20260;-71
2021/06/27 04:54:52;;;;;;;;;;;14.50;99.90;;;;;;5036041;28;19925;-71
2021/06/27 04:57:19;;;;;;;;;;;14.40;99.90;;;;;;5036036;28;19925;-70
2021/06/27 04:59:46;;;;;;;;;;;14.40;99.90;;;;;;5035964;28;20266;-71
2021/06/27 05:02:14;;;;;;;;;;;14.40;99.90;;;;;;5036276;28;19925;-71
2021/06/27 05:04:41;;;;;;;;;;;14.40;99.90;;;;;;5036059;28;19925;-71
2021/06/27 05:07:08;;;;;;;;;;;14.40;99.90;;;;;;4970284;28;1885736;-71
2021/06/27 05:09:34;;;;;;;;;;;14.40;99.90;;;;;;5036883;28;19935;-70
2021/06/27 05:12:01;;;;;;;;;;;14.50;99.90;;;;;;5036844;28;19931;-71
2021/06/27 05:14:28;;;;;;;;;;;14.50;99.90;;;;;;5037031;28;19932;-71
2021/06/27 05:16:55;;;;;;;;;;;14.60;99.90;;;;;;5036683;28;19947;-71
2021/06/27 05:19:23;;;;;;;;;;;14.60;99.90;;;;;;5036748;28;20361;-70
2021/06/27 05:21:50;;;;;;;;;;;14.60;99.90;;;;;;5036627;28;19935;-71
2021/06/27 05:24:18;;;;;;;;;;;14.60;99.90;;;;;;5036461;28;19936;-70
2021/06/27 05:26:45;;;;;;;;;;;14.60;99.90;;;;;;5036353;28;20021;-70
2021/06/27 05:29:12;;;;;;;;;;;14.60;99.90;;;;;;5036439;28;19925;-70
2021/06/27 05:31:39;;;;;;;;;;;14.70;99.90;;;;;;5036327;28;19926;-71
2021/06/27 05:34:06;;;;;;;;;;;14.80;99.90;;;;;;5036573;28;20391;-71
2021/06/27 05:36:37;;;;;;;;;;;14.90;99.90;;;;;;5035634;28;19936;-71
2021/06/27 05:39:05;;;;;;;;;;;15.00;99.90;;;;;;5036478;28;19940;-70
2021/06/27 05:41:32;;;;;;;;;;;15.10;99.90;;;;;;5036279;28;20257;-71
2021/06/27 05:43:58;;;;;;;;;;;15.20;99.90;;;;;;5036425;28;19925;-68
2021/06/27 05:46:25;;;;;;;;;;;15.20;99.90;;;;;;5036032;28;20367;-71
2021/06/27 05:48:52;;;;;;;;;;;15.20;99.90;;;;;;5036064;28;19925;-71
2021/06/27 05:51:19;;;;;;;;;;;15.30;99.90;;;;;;5036329;28;19936;-70
2021/06/27 05:53:47;;;;;;;;;;;15.40;99.90;;;;;;5035957;28;19933;-71
2021/06/27 05:56:16;;;;;;;;;;;15.40;99.90;;;;;;5036206;28;19945;-70
2021/06/27 05:58:44;;;;;;;;;;;15.50;99.90;;;;;;5035896;28;19925;-71
2021/06/27 06:01:11;;;;;;;;;;;15.50;99.90;;;;;;5035784;28;19931;-71
2021/06/27 06:03:38;;;;;;;;;;;15.50;99.90;;;;;;5035909;28;19975;-70
2021/06/27 06:06:05;;;;;;;;;;;15.50;99.90;;;;;;5035757;28;19933;-68
2021/06/27 06:08:31;;;;;;;;;;;15.50;99.90;;;;;;5035789;28;19935;-70
2021/06/27 06:11:00;;;;;;;;;;;15.50;99.90;;;;;;5035628;28;19932;-71
2021/06/27 06:13:26;;;;;;;;;;;15.50;99.90;;;;;;5035851;28;19963;-71
2021/06/27 06:15:53;;;;;;;;;;;15.50;99.90;;;;;;5035513;28;20271;-71
2021/06/27 06:18:20;;;;;;;;;;;15.70;99.90;;;;;;5035559;28;19925;-71
2021/06/27 06:20:47;;;;;;;;;;;15.90;99.90;;;;;;5035652;28;19935;-70
2021/06/27 06:23:14;;;;;;;;;;;16.20;99.90;;;;;;5035455;28;19929;-71
2021/06/27 06:25:41;;;;;;;;;;;16.40;99.90;;;;;;5035831;28;19925;-71
2021/06/27 06:28:09;;;;;;;;;;;16.40;99.90;;;;;;5035483;28;19932;-70
2021/06/27 06:30:36;;;;;;;;;;;16.60;99.90;;;;;;5035598;28;20372;-71
2021/06/27 06:33:03;;;;;;;;;;;16.70;99.90;;;;;;5035349;28;19925;-71
2021/06/27 06:35:30;;;;;;;;;;;16.70;99.90;;;;;;5035312;28;19925;-71
2021/06/27 06:37:56;;;;;;;;;;;16.50;99.90;;;;;;5035766;28;20083;-71
2021/06/27 06:40:23;;;;;;;;;;;16.50;99.90;;;;;;5035383;28;19925;-71
2021/06/27 06:42:50;;;;;;;;;;;16.40;99.90;;;;;;5035332;28;19925;-70
2021/06/27 06:45:18;;;;;;;;;;;16.40;99.90;;;;;;5035208;28;19932;-71
2021/06/27 06:47:45;;;;;;;;;;;16.40;99.90;;;;;;5035154;28;19925;-70
2021/06/27 06:50:12;;;;;;;;;;;16.50;99.90;;;;;;5035261;28;19935;-71
2021/06/27 06:52:39;;;;;;;;;;;16.40;99.90;;;;;;5035027;28;19935;-71
2021/06/27 06:55:06;;;;;;;;;;;16.40;99.90;;;;;;5035260;28;19929;-70
2021/06/27 06:57:33;;;;;;;;;;;16.30;99.90;;;;;;5035069;28;20353;-71
2021/06/27 07:00:00;;;;;;;;;;;16.30;99.90;;;;;;5035162;28;19925;-71
2021/06/27 07:02:28;;;;;;;;;;;16.20;99.90;;;;;;5035039;28;20349;-69
2021/06/27 07:04:55;;;;;;;;;;;16.20;99.90;;;;;;5035017;28;19936;-71
2021/06/27 07:07:22;;;;;;;;;;;16.10;99.90;;;;;;5034879;28;19936;-71
2021/06/27 07:09:48;;;;;;;;;;;16.10;99.90;;;;;;5035129;28;19925;-71
2021/06/27 07:12:15;;;;;;;;;;;15.90;99.90;;;;;;5034876;28;19933;-70
2021/06/27 07:14:43;;;;;;;;;;;15.90;99.90;;;;;;5034965;28;20260;-70
2021/06/27 07:17:10;;;;;;;;;;;15.80;99.90;;;;;;5035075;28;19929;-68
2021/06/27 07:19:38;;;;;;;;;;;15.80;99.90;;;;;;5034866;28;19924;-71
2021/06/27 07:22:05;;;;;;;;;;;15.70;99.90;;;;;;5034795;28;19929;-70
2021/06/27 07:24:32;;;;;;;;;;;15.70;99.90;;;;;;5034942;28;19925;-71
2021/06/27 07:26:59;;;;;;;;;;;15.60;99.90;;;;;;5034680;28;20016;-70
2021/06/27 07:29:26;;;;;;;;;;;15.60;99.90;;;;;;5034849;28;19975;-71
2021/06/27 07:31:53;;;;;;;;;;;15.60;99.90;;;;;;5034807;28;19948;-70
2021/06/27 07:34:20;;;;;;;;;;;15.70;99.90;;;;;;5034678;28;19940;-71
2021/06/27 07:36:48;;;;;;;;;;;15.80;99.90;;;;;;5034895;28;19936;-71
2021/06/27 07:39:15;;;;;;;;;;;15.80;99.90;;;;;;5034620;28;19925;-71
2021/06/27 07:41:42;;;;;;;;;;;15.90;99.90;;;;;;5034908;28;19935;-71
2021/06/27 07:44:09;;;;;;;;;;;15.90;99.90;;;;;;5034637;28;19935;-71
2021/06/27 07:46:36;;;;;;;;;;;16.00;99.90;;;;;;5034523;28;19929;-71
2021/06/27 07:49:03;;;;;;;;;;;15.90;99.90;;;;;;5034648;28;20269;-69
2021/06/27 07:51:29;;;;;;;;;;;15.90;99.90;;;;;;5034789;28;20365;-71
2021/06/27 07:53:58;;;;;;;;;;;15.90;99.90;;;;;;5034346;28;19932;-71
2021/06/27 07:56:25;;;;;;;;;;;15.90;99.90;;;;;;5034533;28;20368;-71
2021/06/27 07:58:52;;;;;;;;;;;15.90;99.90;;;;;;5034539;28;19932;-71
2021/06/27 08:01:19;;;;;;;;;;;16.00;99.90;;;;;;5038141;28;19925;-71
2021/06/27 08:03:45;;;;;;;;;;;16.00;99.90;;;;;;5038311;28;19925;-71
2021/06/27 08:06:12;;;;;;;;;;;16.00;99.90;;;;;;5037960;28;19925;-71
2021/06/27 08:08:39;;;;;;;;;;;16.00;99.90;;;;;;5037854;28;19925;-71
2021/06/27 08:11:08;;;;;;;;;;;16.00;99.90;;;;;;5037920;28;19929;-71
2021/06/27 08:13:35;;;;;;;;;;;16.00;99.90;;;;;;5037951;28;19929;-71
2021/06/27 08:16:02;;;;;;;;;;;16.00;99.90;;;;;;5037710;28;20349;-68
2021/06/27 08:18:29;;;;;;;;;;;16.00;99.90;;;;;;5037785;28;19925;-71
2021/06/27 08:20:56;;;;;;;;;;;16.10;99.90;;;;;;5037096;28;19944;-71
2021/06/27 08:23:23;;;;;;;;;;;16.00;99.90;;;;;;5037824;28;19925;-71
2021/06/27 08:25:49;;;;;;;;;;;16.10;99.90;;;;;;5037672;28;20251;-71
2021/06/27 08:28:18;;;;;;;;;;;16.10;99.90;;;;;;5037556;28;19931;-71
2021/06/27 08:30:44;;;;;;;;;;;16.10;99.90;;;;;;5037684;28;19935;-71
2021/06/27 08:33:11;;;;;;;;;;;16.10;99.90;;;;;;5037632;28;19926;-71
2021/06/27 08:35:38;;;;;;;;;;;16.20;99.90;;;;;;5037471;28;19924;-71
2021/06/27 08:38:05;;;;;;;;;;;16.20;99.90;;;;;;5037603;28;19928;-71
2021/06/27 08:40:32;;;;;;;;;;;16.20;99.90;;;;;;5037578;28;19935;-71
2021/06/27 08:42:59;;;;;;;;;;;16.30;99.90;;;;;;5037428;28;19935;-71
2021/06/27 08:45:28;;;;;;;;;;;16.30;99.90;;;;;;5037288;28;20273;-71
2021/06/27 08:47:55;;;;;;;;;;;16.30;99.90;;;;;;5037445;28;19929;-71
2021/06/27 08:50:22;;;;;;;;;;;16.40;99.90;;;;;;5037435;28;19935;-71
2021/06/27 08:52:49;;;;;;;;;;;16.40;99.90;;;;;;5037370;28;19926;-71
2021/06/27 08:55:16;;;;;;;;;;;16.40;99.90;;;;;;5037219;28;19925;-71
2021/06/27 08:57:43;;;;;;;;;;;16.50;99.90;;;;;;5037230;28;19925;-71
2021/06/27 09:00:10;;;;;;;;;;;16.50;99.90;;;;;;5037041;28;19940;-71
2021/06/27 09:02:39;;;;;;;;;;;16.50;99.90;;;;;;5037144;28;19925;-70
2021/06/27 09:05:07;;;;;;;;;;;16.50;99.90;;;;;;5037073;28;19933;-71
2021/06/27 09:07:35;;;;;;;;;;;16.50;99.90;;;;;;5036854;28;19925;-71
2021/06/27 09:10:03;;;;;;;;;;;16.60;99.90;;;;;;5036817;28;19935;-71
2021/06/27 09:12:44;;;;;;;;;;;16.60;99.90;;;;;;5035939;28;19925;-72
2021/06/27 09:15:11;;;;;;;;;;;16.70;99.90;;;;;;5036823;28;19936;-71
2021/06/27 09:17:42;;;;;;;;;;;16.70;99.90;;;;;;5037039;28;19925;-71
2021/06/27 09:20:09;;;;;;;;;;;16.80;99.90;;;;;;5036866;28;19933;-71
2021/06/27 09:22:37;;;;;;;;;;;16.70;99.90;;;;;;5036626;28;19979;-71
2021/06/27 09:25:17;;;;;;;;;;;16.70;99.90;;;;;;5036570;28;19925;-71
2021/06/27 09:27:44;;;;;;;;;;;16.70;99.90;;;;;;5036732;28;20249;-71
2021/06/27 09:30:14;;;;;;;;;;;16.80;99.90;;;;;;5036542;28;19925;-71
2021/06/27 09:32:49;;;;;;;;;;;16.80;99.90;;;;;;5036517;28;19931;-71
2021/06/27 09:35:16;;;;;;;;;;;16.70;99.90;;;;;;5036487;28;19929;-71
2021/06/27 09:37:43;;;;;;;;;;;16.70;99.90;;;;;;5036587;28;20379;-71
2021/06/27 09:40:10;;;;;;;;;;;16.80;99.90;;;;;;5036681;28;20020;-71
2021/06/27 09:42:37;;;;;;;;;;;16.80;99.90;;;;;;5036431;28;19935;-71
2021/06/27 09:45:05;;;;;;;;;;;16.80;99.90;;;;;;5036272;28;19937;-71
2021/06/27 09:47:32;;;;;;;;;;;16.80;99.90;;;;;;5036265;28;19925;-71
2021/06/27 09:50:00;;;;;;;;;;;16.90;99.90;;;;;;5036160;28;19936;-71
2021/06/27 09:52:36;;;;;;;;;;;17.10;99.90;;;;;;5036028;28;19928;-71
2021/06/27 09:55:06;;;;;;;;;;;17.40;99.90;;;;;;5036082;28;19936;-71
2021/06/27 09:57:32;;;;;;;;;;;17.60;99.90;;;;;;5036114;28;19925;-71
2021/06/27 09:59:59;;;;;;;;;;;17.70;99.90;;;;;;5035967;28;19925;-71
2021/06/27 10:02:26;;;;;;;;;;;17.90;99.90;;;;;;5035982;28;20280;-71
2021/06/27 10:04:53;;;;;;;;;;;18.10;99.90;;;;;;5035844;28;19925;-71
2021/06/27 10:07:21;;;;;;;;;;;18.20;99.90;;;;;;5035723;28;19936;-71
2021/06/27 10:09:48;;;;;;;;;;;18.40;99.90;;;;;;5035781;28;19925;-71
2021/06/27 10:12:16;;;;;;;;;;;18.50;99.90;;;;;;5036186;28;20242;-71
2021/06/27 10:14:56;;;;;;;;;;;18.60;99.90;;;;;;5035744;28;20028;-71
2021/06/27 10:17:24;;;;;;;;;;;18.60;99.90;;;;;;5035505;28;19925;-71
2021/06/27 10:19:50;;;;;;;;;;;18.60;99.90;;;;;;5035716;28;19925;-71
2021/06/27 10:22:17;;;;;;;;;;;18.60;99.90;;;;;;5035262;28;19947;-71
2021/06/27 10:24:46;;;;;;;;;;;18.70;99.90;;;;;;5035512;28;19925;-71
2021/06/27 10:27:13;;;;;;;;;;;18.80;99.90;;;;;;5035355;28;20289;-71
2021/06/27 10:29:40;;;;;;;;;;;19.00;99.90;;;;;;5035393;28;19948;-71
2021/06/27 10:32:07;;;;;;;;;;;19.10;99.90;;;;;;5035388;28;19929;-70
2021/06/27 10:34:34;;;;;;;;;;;19.20;99.90;;;;;;5035762;28;19926;-71
2021/06/27 10:37:06;;;;;;;2.90;1.60;;;19.30;99.90;;;;;;5034650;28;20409;-71
2021/06/27 10:39:33;;;;;;;1.75;1.02;;;19.50;99.90;;;;;;5034848;28;20051;-71
2021/06/27 10:42:02;;;;;;;2.50;0.30;;;19.50;99.90;;;;;;5035216;28;20385;-71
2021/06/27 10:44:30;;;;;;;1.75;0.85;;;19.50;99.90;;;;;;5034624;28;20385;-71
2021/06/27 10:46:58;;;;;;;1.33;0.90;;;19.50;99.90;;;;;;5034951;28;20059;-71
2021/06/27 10:49:53;;;;;;;1.67;1.10;;;19.40;99.90;;;;;;5034082;28;20963;-71
2021/06/27 10:52:21;;;;;;;1.77;1.30;;;19.20;99.90;;;;;;5034666;28;20287;-71
2021/06/27 10:55:19;;;;;;;1.63;1.52;;;19.00;99.90;;;;;;5034591;28;20053;-71
2021/06/27 10:57:55;;;;;;;3.60;1.38;;;18.90;99.90;;;;;;5022713;28;20373;-71
2021/06/27 11:00:22;;;;;;;2.35;1.77;;;18.90;99.90;;;;;;5034462;28;20059;-71
2021/06/27 11:02:49;;;;;;;;;;;18.90;99.90;;;;;;5034718;28;20049;-71
2021/06/27 11:05:39;;;;;;;3.92;1.92;;;18.90;99.90;;;;;;5034227;28;20405;-71
2021/06/27 11:08:06;;;;;;;3.10;1.88;;;18.90;99.90;;;;;;5034383;28;20386;-71
2021/06/27 11:10:35;;;;;;;2.70;1.38;;;18.80;99.90;;;;;;5034291;28;20373;-71
2021/06/27 11:13:16;;;;;;;3.22;1.90;;;18.80;99.90;;;;;;5034273;28;20587;-71
2021/06/27 11:16:06;;;;;;;3.38;1.52;;;18.80;99.90;;;;;;5034352;28;20152;-71
2021/06/27 11:18:34;;;;;;;2.08;1.30;;;18.90;99.90;;;;;;5034336;28;20053;-71
2021/06/27 11:21:25;;;;;;;3.17;1.98;;;18.90;99.90;;;;;;5034369;28;20376;-71
2021/06/27 11:24:08;;;;;;;2.95;1.65;;;18.80;99.90;;;;;;5034399;28;20119;-71
2021/06/27 11:26:52;;;;;;;;;;;18.80;99.90;;;;;;5034997;28;20138;-71
2021/06/27 11:29:37;;;;;;;;;;;18.70;99.90;;;;;;5034884;28;20310;-71
2021/06/27 11:32:19;;;;;;;;;;;18.50;99.90;;;;;;5034650;28;19921;-71
2021/06/27 11:34:53;;;;;;;;;;;18.50;99.90;;;;;;5035954;28;19931;-71
2021/06/27 11:37:40;;;;;;;;;;;18.50;99.90;;;;;;5038670;28;19943;-70
2021/06/27 11:40:07;;;;;;;;;;;18.50;99.90;;;;;;5034886;28;20424;-74
2021/06/27 11:42:50;;;;;;;;;;;18.60;99.90;;;;;;5038471;28;19939;-70
2021/06/27 11:45:35;;;;;;;;;;;18.60;99.90;;;;;;5038491;28;20027;-70
2021/06/27 11:48:04;;;;;;;;;;;18.70;99.90;;;;;;5038516;28;19943;-70
2021/06/27 11:50:32;;;;;;;;;;;18.70;99.90;;;;;;5038526;28;19921;-70
2021/06/27 11:52:59;;;;;;;;;;;18.70;99.90;;;;;;5038273;28;19921;-70
2021/06/27 11:55:26;;;;;;;;;;;18.60;99.90;;;;;;5038369;28;19921;-71
2021/06/27 11:57:53;;;;;;;;;;;18.60;99.90;;;;;;5038200;28;19931;-70
2021/06/27 12:00:28;;;;;;;;;;;18.50;99.90;;;;;;5038106;28;19932;-72
2021/06/27 12:02:55;;;;;;;;;;;18.40;99.90;;;;;;5038040;28;19971;-70
2021/06/27 12:05:22;;;;;;;;;;;18.30;99.90;;;;;;5037716;28;19928;-70
2021/06/27 12:07:50;;;;;;;;;;;18.30;99.90;;;;;;5037523;28;20011;-69
2021/06/27 12:10:20;;;;;;;;;;;18.30;99.90;;;;;;5037879;28;19921;-72
2021/06/27 12:12:47;;;;;;;;;;;18.40;99.90;;;;;;5037916;28;19987;-74
2021/06/27 12:15:31;;;;;;;;;;;18.50;99.90;;;;;;5038141;28;19921;-72
2021/06/27 12:17:58;;;;;;;;;;;18.70;99.90;;;;;;5037987;28;19929;-72
2021/06/27 12:20:25;;;;;;;;;;;18.80;99.90;;;;;;5037847;28;19921;-72
2021/06/27 12:22:56;;;;;;;;;;;18.80;99.90;;;;;;5033514;28;19921;-72
2021/06/27 12:25:27;;;;;;;;;;;18.80;99.90;;;;;;5037366;28;19921;-72
2021/06/27 12:27:55;;;;;;;;;;;18.80;99.90;;;;;;5037191;28;19972;-72
2021/06/27 12:30:38;;;;;;;;;;;18.90;99.90;;;;;;5036933;28;19931;-72
2021/06/27 12:33:06;;;;;;;8.98;2.22;;;19.00;99.90;;;;;;5035656;28;20860;-72
2021/06/27 12:35:34;;;;;;;4.80;2.05;;;19.10;99.90;;;;;;5037075;28;20053;-73
2021/06/27 12:38:12;;;;;;;6.15;2.20;;;19.10;99.90;;;;;;5037321;28;20370;-73
2021/06/27 12:40:42;;;;;;;;;;;19.20;99.90;;;;;;5036967;28;20053;-72
2021/06/27 12:43:19;;;;;;;;;;;19.20;99.90;;;;;;5037589;28;20007;-72
2021/06/27 12:45:46;;;;;;;;;;;19.20;99.90;;;;;;5035821;28;19975;-72
2021/06/27 12:48:14;;;;;;;;;;;19.10;99.90;;;;;;5035256;28;19935;-72
2021/06/27 12:50:41;;;;;;;;;;;19.10;99.90;;;;;;5037734;28;19929;-73
2021/06/27 12:53:09;;;;;;;;;;;19.10;99.90;;;;;;5036939;28;20345;-72
2021/06/27 12:55:37;;;;;;;;;;;19.20;99.90;;;;;;5035970;28;19936;-73
2021/06/27 12:58:04;;;;;;;;;;;19.40;99.90;;;;;;5036985;28;19935;-72
2021/06/27 13:00:34;;;;;;;;;;;19.50;99.90;;;;;;5037093;28;19987;-72
2021/06/27 13:03:17;;;;;;;;;;;19.50;99.90;;;;;;5037163;28;20400;-72
2021/06/27 13:05:58;;;;;;;;;;;19.50;99.90;;;;;;5037154;28;20037;-72
2021/06/27 13:08:26;;;;;;;;;;;19.50;99.90;;;;;;5036881;28;19920;-72
2021/06/27 13:11:09;;;;;;;;;;;19.50;99.90;;;;;;5036858;28;20272;-72
2021/06/27 13:13:36;;;;;;;;;;;19.50;99.90;;;;;;5036909;28;19933;-72
2021/06/27 13:16:15;;;;;;;;;;;19.50;99.90;;;;;;5036873;28;19929;-72
2021/06/27 13:18:42;;;;;;;;;;;19.50;99.90;;;;;;5036907;28;19921;-72
2021/06/27 13:21:21;;;;;;;;;;;19.40;99.90;;;;;;5036618;28;19986;-72
2021/06/27 13:23:55;;;;;;;;;;;19.40;99.90;;;;;;5036786;28;19983;-72
2021/06/27 13:26:24;;;;;;;;;;;19.50;99.90;;;;;;5036593;28;19921;-72
2021/06/27 13:28:51;;;;;;;;;;;19.50;99.90;;;;;;5036706;28;19929;-72
2021/06/27 13:31:29;;;;;;;;;;;19.50;99.90;;;;;;5036698;28;19936;-72
2021/06/27 13:33:58;;;;;;;;;;;19.50;99.90;;;;;;5036502;28;19921;-72
2021/06/27 13:36:26;;;;;;;;;;;19.60;99.90;;;;;;5036150;28;19921;-72
2021/06/27 13:38:55;;;;;;;;;;;19.60;99.90;;;;;;5036384;28;19931;-72
2021/06/27 13:41:22;;;;;;;;;;;19.60;99.90;;;;;;5036663;28;20015;-72
2021/06/27 13:43:50;;;;;;;;;;;19.60;99.90;;;;;;5036553;28;19924;-72
2021/06/27 13:46:17;;;;;;;;;;;19.60;99.90;;;;;;5036275;28;19935;-72
2021/06/27 13:48:44;;;;;;;4.00;2.90;;;19.50;99.90;;;;;;5035148;28;20755;-72
2021/06/27 13:51:11;;;;;;;;;;;19.50;99.90;;;;;;5035989;28;20374;-72
2021/06/27 13:53:38;;;;;;;;;;;19.50;99.90;;;;;;5036354;28;19995;-72
2021/06/27 13:56:16;;;;;;;;;;;19.50;99.90;;;;;;5036095;28;20024;-72
2021/06/27 13:58:43;;;;;;;;;;;19.50;99.90;;;;;;5035654;28;19936;-72
2021/06/27 14:01:10;;;;;;;;;;;19.50;99.90;;;;;;5035959;28;19937;-72
2021/06/27 14:03:37;;;;;;;;;;;19.60;99.90;;;;;;5035925;28;20239;-72
2021/06/27 14:06:04;;;;;;;;;;;19.70;99.90;;;;;;5035975;28;20007;-72
2021/06/27 14:08:31;;;;;;;;;;;19.70;99.90;;;;;;5035742;28;19925;-72
2021/06/27 14:11:08;;;;;;;;;;;19.60;99.90;;;;;;5036014;28;19925;-72
2021/06/27 14:13:37;;;;;;;;;;;19.70;99.90;;;;;;5035744;28;19983;-72
2021/06/27 14:16:09;;;;;;;;;;;19.70;99.90;;;;;;5035798;28;19925;-73
2021/06/27 14:18:35;;;;;;;;;;;19.70;99.90;;;;;;5035631;28;20007;-72
2021/06/27 14:21:06;;;;;;;;;;;19.70;99.90;;;;;;5035662;28;20307;-72